Time;durP1;ratioP1;P1;durP2;ratioP2;P2;SDS_P1;SDS_P2;PMS_P1;PMS_P2;Temp;Humidity;BMP_temperature;BMP_pressure;BME280_temperature;BME280_humidity;BME280_pressure;Samples;Min_cycle;Max_cycle;Signal;HPM_P1;HPM_P2
2022/12/28 00:00:16;;;;;;;0.25;0.10;;;5.80;99.90;;;;;;4979096;28;20121;-94
2022/12/28 00:02:43;;;;;;;0.30;0.30;;;5.80;99.90;;;;;;4963125;28;20046;-94
2022/12/28 00:05:12;;;;;;;0.15;0.10;;;5.80;99.90;;;;;;4962439;28;20495;-92
2022/12/28 00:07:38;;;;;;;0.00;0.00;;;5.90;99.90;;;;;;4946622;28;20549;-93
2022/12/28 00:10:10;;;;;;;0.10;0.10;;;5.80;99.90;;;;;;4963177;28;20043;-93
2022/12/28 00:12:36;;;;;;;0.00;0.00;;;5.80;99.90;;;;;;4947218;28;20078;-93
2022/12/28 00:15:26;;;;;;;0.00;0.00;;;5.80;99.90;;;;;;4962983;28;20132;-94
2022/12/28 00:17:56;;;;;;;0.32;0.25;;;5.80;99.90;;;;;;4963242;28;20050;-92
2022/12/28 00:20:35;;;;;;;;;;;;;;;;;;;;;
2022/12/28 00:23:11;;;;;;;0.00;0.00;;;5.70;99.90;;;;;;4979970;28;20047;-94
2022/12/28 00:25:44;;;;;;;0.00;0.00;;;5.70;99.90;;;;;;4963185;28;20112;-93
2022/12/28 00:28:15;;;;;;;0.10;0.10;;;5.70;99.90;;;;;;4963566;28;20050;-92
2022/12/28 00:30:46;;;;;;;0.20;0.03;;;5.70;99.90;;;;;;4978988;28;20050;-94
2022/12/28 00:33:18;;;;;;;0.68;0.47;;;5.70;99.90;;;;;;4962569;28;20050;-94
2022/12/28 00:35:51;;;;;;;0.22;0.10;;;5.80;99.90;;;;;;4966158;28;20058;-94
2022/12/28 00:38:37;;;;;;;0.00;0.00;;;5.60;99.90;;;;;;4966510;28;20054;-95
2022/12/28 00:41:13;;;;;;;;;;;;;;;;;;;;;
2022/12/28 00:43:52;;;;;;;;;;;;;;;;;;;;;
2022/12/28 00:46:34;;;;;;;0.10;0.00;;;5.70;99.90;;;;;;4983614;28;20125;-95
2022/12/28 00:49:02;;;;;;;0.70;0.10;;;5.80;99.90;;;;;;4966094;28;20045;-94
2022/12/28 00:51:38;;;;;;;0.00;0.00;;;5.70;99.90;;;;;;4981661;28;20503;-93
2022/12/28 00:54:16;;;;;;;;;;;;;;;;;;;;;
2022/12/28 00:56:45;;;;;;;0.00;0.00;;;5.70;99.90;;;;;;4981126;28;20061;-90
2022/12/28 00:59:11;;;;;;;0.00;0.00;;;5.90;99.90;;;;;;4980987;28;20502;-90
2022/12/28 01:01:45;;;;;;;0.90;0.20;;;5.80;99.90;;;;;;4964694;28;20051;-90
2022/12/28 01:04:18;;;;;;;0.00;0.00;;;5.70;99.90;;;;;;4965366;28;20149;-90
2022/12/28 01:06:56;;;;;;;0.00;0.00;;;5.80;99.90;;;;;;4964875;28;20046;-90
2022/12/28 01:09:25;;;;;;;0.20;0.20;;;5.70;99.90;;;;;;4965160;28;20038;-90
2022/12/28 01:11:51;;;;;;;0.40;0.00;;;5.70;99.90;;;;;;4963516;28;20190;-89
2022/12/28 01:14:17;;;;;;;0.35;0.22;;;6.00;99.90;;;;;;4964774;28;20054;-90
2022/12/28 01:16:42;;;;;;;0.00;0.00;;;5.70;99.90;;;;;;4965220;28;20062;-91
2022/12/28 01:19:16;;;;;;;0.55;0.20;;;5.80;99.90;;;;;;4964756;28;20343;-91
2022/12/28 01:21:50;;;;;;;0.75;0.75;;;5.80;99.90;;;;;;4964949;28;20375;-91
2022/12/28 01:24:41;;;;;;;0.00;0.00;;;5.90;99.90;;;;;;4964796;28;20058;-92
2022/12/28 01:30:19;;;;;;;0.17;0.17;;;5.80;99.90;;;;;;4969343;28;20081;-94
2022/12/28 01:35:44;;;;;;;0.00;0.00;;;6.00;99.90;;;;;;4980721;28;20108;-92
2022/12/28 01:38:49;;;;;;;;;;;;;;;;;;;;;
2022/12/28 01:51:48;;;;;;;0.70;0.35;;;6.10;99.90;;;;;;4892077;29;20056;-96
2022/12/28 01:54:50;;;;;;;;;;;;;;;;;;;;;
2022/12/28 01:57:27;;;;;;;0.38;0.20;;;5.90;99.90;;;;;;4892429;29;20080;-96
2022/12/28 02:00:23;;;;;;;2.00;0.00;;;5.90;99.90;;;;;;4904272;28;20090;-96
2022/12/28 02:03:22;;;;;;;0.00;0.00;;;5.90;99.90;;;;;;4986481;28;20058;-94
2022/12/28 02:06:31;;;;;;;;;;;;;;;;;;;;;
2022/12/28 02:12:57;;;;;;;0.00;0.00;;;6.00;99.90;;;;;;4973837;28;20141;-96
2022/12/28 02:16:14;;;;;;;;;;;;;;;;;;;;;
2022/12/28 02:22:17;;;;;;;0.55;0.28;;;6.00;99.90;;;;;;4970120;28;20047;-96
2022/12/28 02:25:10;;;;;;;;;;;;;;;;;;;;;
2022/12/28 02:28:41;;;;;;;;;;;;;;;;;;;;;
2022/12/28 02:31:50;;;;;;;;;;;;;;;;;;;;;
2022/12/28 02:35:04;;;;;;;;;;;;;;;;;;;;;
2022/12/28 02:41:42;;;;;;;;;;;;;;;;;;;;;
2022/12/28 02:51:01;;;;;;;;;;;;;;;;;;;;;
2022/12/28 02:54:11;;;;;;;0.10;0.10;;;6.20;99.90;;;;;;4980380;28;20108;-96
2022/12/28 02:56:51;;;;;;;0.32;0.00;;;6.20;99.90;;;;;;4979981;28;20055;-96
2022/12/28 03:00:02;;;;;;;;;;;;;;;;;;;;;
2022/12/28 03:11:14;;;;;;;0.00;0.00;;;6.20;99.90;;;;;;4995003;28;20114;-90
2022/12/28 03:14:01;;;;;;;0.00;0.00;;;6.30;99.90;;;;;;4950906;28;20625;-91
2022/12/28 03:25:41;;;;;;;0.25;0.03;;;6.30;99.90;;;;;;4963455;28;20042;-90
2022/12/28 03:33:22;;;;;;;0.00;0.00;;;6.30;99.90;;;;;;4978857;28;20145;-89
2022/12/28 03:35:53;;;;;;;0.00;0.00;;;6.40;99.90;;;;;;4961696;28;20518;-89
2022/12/28 03:39:00;;;;;;;0.00;0.00;;;6.40;99.90;;;;;;4962676;28;20051;-90
2022/12/28 03:41:35;;;;;;;0.17;0.05;;;6.40;99.90;;;;;;4976824;28;20054;-90
2022/12/28 03:44:37;;;;;;;0.00;0.00;;;6.40;99.90;;;;;;4962170;28;20184;-89
2022/12/28 03:47:26;;;;;;;0.25;0.00;;;6.40;99.90;;;;;;4962851;28;20042;-91
2022/12/28 03:49:59;;;;;;;0.00;0.00;;;6.50;99.90;;;;;;4962223;28;20486;-90
2022/12/28 03:52:35;;;;;;;0.00;0.00;;;6.50;99.90;;;;;;4962525;28;20046;-92
2022/12/28 03:55:01;;;;;;;1.20;0.40;;;6.50;99.90;;;;;;4962396;28;20046;-91
2022/12/28 03:57:27;;;;;;;0.38;0.00;;;6.40;99.90;;;;;;4962094;28;20494;-90
2022/12/28 03:59:56;;;;;;;0.63;0.57;;;6.70;99.90;;;;;;4960763;28;20049;-88
2022/12/28 04:02:28;;;;;;;0.10;0.10;;;6.50;99.90;;;;;;4961367;28;20049;-88
2022/12/28 04:05:03;;;;;;;0.00;0.00;;;6.50;99.90;;;;;;4961924;28;20085;-91
2022/12/28 04:07:32;;;;;;;0.10;0.00;;;6.50;99.90;;;;;;4946438;28;20062;-89
2022/12/28 04:10:15;;;;;;;0.43;0.15;;;6.50;99.90;;;;;;4949003;28;20089;-90
2022/12/28 04:12:43;;;;;;;0.00;0.00;;;6.50;99.90;;;;;;4965184;28;20046;-89
2022/12/28 04:15:19;;;;;;;0.20;0.20;;;6.50;99.90;;;;;;4982147;28;20046;-88
2022/12/28 04:17:48;;;;;;;0.35;0.17;;;6.50;99.90;;;;;;4950719;28;20053;-89
2022/12/28 04:20:17;;;;;;;0.00;0.00;;;6.60;99.90;;;;;;4965870;28;20046;-90
2022/12/28 04:22:52;;;;;;;0.00;0.00;;;6.60;99.90;;;;;;4965518;28;20109;-89
2022/12/28 04:25:26;;;;;;;1.73;0.65;;;6.60;99.90;;;;;;4965831;28;20137;-89
2022/12/28 04:27:51;;;;;;;3.63;0.90;;;6.50;99.90;;;;;;4981219;28;20046;-89
2022/12/28 04:30:19;;;;;;;0.00;0.00;;;6.80;99.90;;;;;;4965337;28;20447;-90
2022/12/28 04:32:48;;;;;;;0.03;0.03;;;6.60;99.90;;;;;;4949171;28;20046;-89
2022/12/28 04:35:24;;;;;;;0.10;0.00;;;6.60;99.90;;;;;;4950079;28;20096;-90
2022/12/28 04:37:58;;;;;;;0.00;0.00;;;6.70;99.90;;;;;;4966075;28;20132;-90
2022/12/28 04:40:31;;;;;;;0.00;0.00;;;6.60;99.90;;;;;;4965396;28;20129;-90
2022/12/28 04:43:03;;;;;;;0.00;0.00;;;6.70;99.90;;;;;;4949098;28;20400;-90
2022/12/28 04:45:38;;;;;;;0.00;0.00;;;6.70;99.90;;;;;;4965119;28;20467;-91
2022/12/28 04:48:08;;;;;;;0.00;0.00;;;6.70;99.90;;;;;;4949968;28;20046;-91
2022/12/28 04:51:14;;;;;;;0.00;0.00;;;6.70;99.90;;;;;;4966060;28;20129;-92
2022/12/28 04:53:44;;;;;;;0.00;0.00;;;6.90;99.90;;;;;;4992448;28;20494;-91
2022/12/28 04:56:11;;;;;;;0.50;0.00;;;6.80;99.90;;;;;;4968739;28;20462;-91
2022/12/28 04:58:56;;;;;;;0.00;0.00;;;6.80;99.90;;;;;;4967075;28;20050;-94
2022/12/28 05:01:32;;;;;;;;;;;;;;;;;;;;;
2022/12/28 05:03:59;;;;;;;0.00;0.00;;;6.80;99.90;;;;;;4981815;28;20052;-92
2022/12/28 05:06:45;;;;;;;0.00;0.00;;;6.80;99.90;;;;;;4965816;28;20060;-93
2022/12/28 05:09:20;;;;;;;0.10;0.00;;;6.80;99.90;;;;;;4965735;28;20058;-92
2022/12/28 05:11:51;;;;;;;0.00;0.00;;;6.80;99.90;;;;;;4965371;28;20081;-89
2022/12/28 05:14:30;;;;;;;;;;;;;;;;;;;;;
2022/12/28 05:17:08;;;;;;;0.00;0.00;;;6.90;99.90;;;;;;4981636;28;20043;-91
2022/12/28 05:19:36;;;;;;;0.00;0.00;;;6.90;99.90;;;;;;4964583;28;20502;-93
2022/12/28 05:22:10;;;;;;;0.00;0.00;;;7.10;99.90;;;;;;4965816;28;20046;-92
2022/12/28 05:24:41;;;;;;;0.75;0.00;;;6.90;99.90;;;;;;4965385;28;20530;-92
2022/12/28 05:27:08;;;;;;;0.03;0.00;;;6.90;99.90;;;;;;4964800;28;20066;-92
2022/12/28 05:29:34;;;;;;;0.00;0.00;;;6.90;99.90;;;;;;4965387;28;20046;-92
2022/12/28 05:32:00;;;;;;;0.00;0.00;;;7.00;99.90;;;;;;4964916;28;20053;-92
2022/12/28 05:34:28;;;;;;;0.00;0.00;;;7.20;99.90;;;;;;4964476;28;20137;-90
2022/12/28 05:36:54;;;;;;;0.00;0.00;;;7.00;99.90;;;;;;4965114;28;20081;-92
2022/12/28 05:39:25;;;;;;;0.00;0.00;;;7.00;99.90;;;;;;4948630;28;20150;-92
2022/12/28 05:42:03;;;;;;;;;;;;;;;;;;;;;
2022/12/28 05:44:41;;;;;;;0.00;0.00;;;7.10;99.90;;;;;;4966652;28;20052;-91
2022/12/28 05:47:19;;;;;;;;;;;;;;;;;;;;;
2022/12/28 05:49:55;;;;;;;0.20;0.20;;;7.20;99.90;;;;;;4965999;28;20558;-91
2022/12/28 05:52:38;;;;;;;;;;;;;;;;;;;;;
2022/12/28 05:55:25;;;;;;;0.00;0.00;;;7.20;99.90;;;;;;4980809;28;20561;-91
2022/12/28 05:57:57;;;;;;;0.00;0.00;;;7.30;99.90;;;;;;4964832;28;20084;-95
2022/12/28 06:00:30;;;;;;;0.73;0.20;;;7.30;99.90;;;;;;4966442;28;20050;-94
2022/12/28 06:03:04;;;;;;;0.00;0.00;;;7.30;99.90;;;;;;4984345;28;20046;-94
2022/12/28 06:05:53;;;;;;;0.05;0.05;;;7.40;99.90;;;;;;4968777;28;20056;-92
2022/12/28 06:08:21;;;;;;;0.20;0.10;;;7.20;99.90;;;;;;4966960;28;20112;-92
2022/12/28 06:11:03;;;;;;;;;;;;;;;;;;;;;
2022/12/28 06:13:37;;;;;;;0.00;0.00;;;7.40;99.90;;;;;;4981209;28;20501;-91
2022/12/28 06:16:20;;;;;;;1.55;0.00;;;7.40;99.90;;;;;;4981094;28;20056;-93
2022/12/28 06:18:52;;;;;;;0.00;0.00;;;7.40;99.90;;;;;;4981424;28;20058;-91
2022/12/28 06:21:21;;;;;;;0.10;0.10;;;7.40;99.90;;;;;;4980436;28;20050;-90
2022/12/28 06:23:57;;;;;;;0.03;0.00;;;7.40;99.90;;;;;;4980179;28;20054;-91
2022/12/28 06:26:26;;;;;;;0.00;0.00;;;7.40;99.90;;;;;;4980293;28;20093;-92
2022/12/28 06:29:05;;;;;;;0.00;0.00;;;7.40;99.90;;;;;;4979596;28;20438;-91
2022/12/28 06:32:00;;;;;;;;;;;;;;;;;;;;;
2022/12/28 06:34:28;;;;;;;0.30;0.22;;;7.50;99.90;;;;;;4981266;28;20061;-91
2022/12/28 06:37:04;;;;;;;;;;;;;;;;;;;;;
2022/12/28 06:39:33;;;;;;;0.00;0.00;;;7.50;99.90;;;;;;4996636;28;20140;-90
2022/12/28 06:42:11;;;;;;;;;;;;;;;;;;;;;
2022/12/28 06:44:43;;;;;;;0.00;0.00;;;7.50;99.90;;;;;;4997558;28;20050;-91
2022/12/28 06:47:10;;;;;;;0.00;0.00;;;7.60;99.90;;;;;;4982549;28;20042;-91
2022/12/28 06:49:39;;;;;;;0.00;0.00;;;7.60;99.90;;;;;;4997818;28;20117;-91
2022/12/28 06:52:05;;;;;;;0.95;0.25;;;7.60;99.90;;;;;;4982812;28;20038;-90
2022/12/28 06:54:33;;;;;;;0.08;0.08;;;7.60;99.90;;;;;;4980555;28;20053;-90
2022/12/28 06:57:03;;;;;;;0.00;0.00;;;7.60;99.90;;;;;;4996857;28;20045;-89
2022/12/28 06:59:29;;;;;;;0.10;0.00;;;7.70;99.90;;;;;;4992293;28;20038;-88
2022/12/28 07:02:08;;;;;;;0.15;0.15;;;7.60;99.90;;;;;;5001259;28;20037;-90
2022/12/28 07:04:39;;;;;;;0.00;0.00;;;7.70;99.90;;;;;;5006524;28;20147;-90
2022/12/28 07:07:07;;;;;;;0.00;0.00;;;7.70;99.90;;;;;;4965004;28;20065;-90
2022/12/28 07:09:39;;;;;;;0.20;0.20;;;7.80;99.90;;;;;;4981051;28;20058;-91
2022/12/28 07:12:19;;;;;;;0.00;0.00;;;6.90;99.90;;;;;;4979904;28;20049;-92
2022/12/28 07:14:50;;;;;;;0.00;0.00;;;7.80;99.90;;;;;;4995741;28;20046;-94
2022/12/28 07:17:19;;;;;;;0.70;0.03;;;7.80;99.90;;;;;;4963262;28;20057;-91
2022/12/28 07:19:50;;;;;;;0.00;0.00;;;7.90;99.90;;;;;;4979109;28;20141;-92
2022/12/28 07:22:18;;;;;;;0.20;0.00;;;7.90;99.90;;;;;;4978520;28;20402;-91
2022/12/28 07:24:46;;;;;;;0.00;0.00;;;7.90;99.90;;;;;;4962427;28;20566;-92
2022/12/28 07:27:19;;;;;;;0.00;0.00;;;7.90;99.90;;;;;;4979147;28;20053;-90
2022/12/28 07:29:48;;;;;;;0.00;0.00;;;8.00;99.90;;;;;;4979558;28;20049;-91
2022/12/28 07:32:16;;;;;;;0.00;0.00;;;7.90;99.90;;;;;;4979403;28;20094;-91
2022/12/28 07:34:47;;;;;;;3.00;1.08;;;8.00;99.90;;;;;;4979217;28;20050;-93
2022/12/28 07:37:15;;;;;;;0.00;0.00;;;8.00;99.90;;;;;;4979685;28;20054;-92
2022/12/28 07:39:44;;;;;;;0.25;0.15;;;8.00;99.90;;;;;;4970221;28;20054;-92
2022/12/28 07:42:13;;;;;;;0.00;0.00;;;8.00;99.90;;;;;;4990428;28;20050;-93
2022/12/28 07:44:51;;;;;;;;;;;;;;;;;;;;;
2022/12/28 07:47:20;;;;;;;0.13;0.00;;;8.10;99.90;;;;;;5000776;28;20062;-91
2022/12/28 07:49:54;;;;;;;0.15;0.03;;;8.10;99.90;;;;;;4985524;28;20062;-94
2022/12/28 07:52:58;;;;;;;0.00;0.00;;;8.10;99.90;;;;;;4954602;28;20049;-95
2022/12/28 07:56:18;;;;;;;0.00;0.00;;;8.20;99.90;;;;;;4978144;28;20467;-94
2022/12/28 08:06:43;;;;;;;0.00;0.00;;;8.10;99.90;;;;;;5008700;28;20026;-96
2022/12/28 08:16:11;;;;;;;0.10;0.10;;;8.20;99.90;;;;;;4978031;28;20058;-96
2022/12/28 08:22:12;;;;;;;;;;;;;;;;;;;;;
2022/12/28 08:25:08;;;;;;;0.00;0.00;;;8.30;99.90;;;;;;4988142;28;20051;-96
2022/12/28 08:27:34;;;;;;;0.10;0.10;;;8.30;99.90;;;;;;4956181;28;20065;-92
2022/12/28 08:30:00;;;;;;;0.00;0.00;;;8.20;99.90;;;;;;4981620;28;20046;-89
2022/12/28 08:32:26;;;;;;;0.00;0.00;;;8.20;99.90;;;;;;4997477;28;20140;-89
2022/12/28 08:34:54;;;;;;;0.10;0.10;;;8.20;99.90;;;;;;4981228;28;20054;-90
2022/12/28 08:37:22;;;;;;;0.00;0.00;;;8.20;99.90;;;;;;4997452;28;20042;-92
2022/12/28 08:40:08;;;;;;;0.00;0.00;;;8.20;99.90;;;;;;4982878;28;20069;-93
2022/12/28 08:42:45;;;;;;;0.08;0.00;;;8.20;99.90;;;;;;4996803;28;20482;-91
2022/12/28 08:45:19;;;;;;;0.22;0.10;;;8.20;99.90;;;;;;4981002;28;20513;-92
2022/12/28 08:47:47;;;;;;;0.00;0.00;;;8.20;99.90;;;;;;4980900;28;20082;-91
2022/12/28 08:50:52;;;;;;;0.17;0.17;;;8.30;99.90;;;;;;4981439;28;20050;-93
2022/12/28 08:53:27;;;;;;;0.10;0.10;;;8.30;99.90;;;;;;4997864;28;20084;-92
2022/12/28 08:56:09;;;;;;;0.47;0.10;;;8.30;99.90;;;;;;4981206;28;20474;-91
2022/12/28 08:58:36;;;;;;;0.00;0.00;;;8.30;99.90;;;;;;4981826;28;20026;-93
2022/12/28 09:01:16;;;;;;;0.00;0.00;;;8.30;99.90;;;;;;4981126;28;20129;-92
2022/12/28 09:03:54;;;;;;;0.00;0.00;;;8.30;99.90;;;;;;4982375;28;20046;-90
2022/12/28 09:06:44;;;;;;;;;;;;;;;;;;;;;
2022/12/28 09:09:23;;;;;;;;;;;;;;;;;;;;;
2022/12/28 09:11:54;;;;;;;0.00;0.00;;;8.40;99.90;;;;;;5001518;28;20437;-94
2022/12/28 09:14:29;;;;;;;0.00;0.00;;;8.50;99.90;;;;;;4984767;28;20057;-94
2022/12/28 09:17:17;;;;;;;0.00;0.00;;;8.30;99.90;;;;;;4985892;28;20046;-94
2022/12/28 09:19:54;;;;;;;0.00;0.00;;;8.40;99.90;;;;;;4985828;28;20041;-96
2022/12/28 09:22:29;;;;;;;0.00;0.00;;;8.50;99.90;;;;;;4985740;28;20076;-94
2022/12/28 09:25:05;;;;;;;0.20;0.20;;;8.40;99.90;;;;;;4985925;28;20046;-94
2022/12/28 09:27:46;;;;;;;0.25;0.10;;;8.50;99.90;;;;;;4970871;28;20556;-96
2022/12/28 09:30:21;;;;;;;0.20;0.05;;;8.50;99.90;;;;;;5001477;28;20041;-94
2022/12/28 09:36:20;;;;;;;0.10;0.00;;;8.50;99.90;;;;;;4943794;29;20057;-95
2022/12/28 09:39:18;;;;;;;;;;;;;;;;;;;;;
2022/12/28 09:42:02;;;;;;;;;;;;;;;;;;;;;
2022/12/28 09:44:54;;;;;;;0.00;0.00;;;8.60;99.90;;;;;;5007468;28;20054;-96
2022/12/28 09:47:57;;;;;;;;;;;;;;;;;;;;;
2022/12/28 09:51:08;;;;;;;;;;;;;;;;;;;;;
2022/12/28 09:54:28;;;;;;;;;;;;;;;;;;;;;
2022/12/28 09:57:27;;;;;;;;;;;;;;;;;;;;;
2022/12/28 10:00:37;;;;;;;;;;;;;;;;;;;;;
2022/12/28 10:03:45;;;;;;;;;;;;;;;;;;;;;
2022/12/28 10:10:06;;;;;;;0.38;0.00;;;8.70;99.90;;;;;;4983392;28;20066;-93
2022/12/28 10:12:46;;;;;;;;;;;;;;;;;;;;;
2022/12/28 10:15:42;;;;;;;0.00;0.00;;;8.70;99.90;;;;;;4976799;28;20073;-92
2022/12/28 10:18:23;;;;;;;0.00;0.00;;;8.70;99.90;;;;;;4962008;28;20133;-90
2022/12/28 10:21:18;;;;;;;0.10;0.00;;;8.70;99.90;;;;;;4959253;28;20066;-91
2022/12/28 10:24:22;;;;;;;;;;;;;;;;;;;;;
2022/12/28 10:27:08;;;;;;;0.00;0.00;;;8.80;99.90;;;;;;4983605;28;20042;-92
2022/12/28 10:29:47;;;;;;;0.10;0.10;;;8.80;99.90;;;;;;4931124;28;20562;-90
2022/12/28 10:32:25;;;;;;;0.00;0.00;;;8.80;99.90;;;;;;4925206;29;20079;-91
2022/12/28 10:35:11;;;;;;;;;;;;;;;;;;;;;
2022/12/28 10:38:06;;;;;;;;;;;;;;;;;;;;;
2022/12/28 10:40:38;;;;;;;0.00;0.00;;;8.90;99.90;;;;;;4964907;28;20402;-92
2022/12/28 10:43:05;;;;;;;0.00;0.00;;;8.90;99.90;;;;;;4960207;28;20425;-92
2022/12/28 10:46:01;;;;;;;0.00;0.00;;;8.90;99.90;;;;;;4976799;28;20051;-91
2022/12/28 10:48:37;;;;;;;1.80;0.03;;;8.90;99.90;;;;;;4975793;28;20133;-90
2022/12/28 10:51:10;;;;;;;0.00;0.00;;;8.90;99.90;;;;;;4959591;28;20050;-89
2022/12/28 10:53:54;;;;;;;0.00;0.00;;;8.90;99.90;;;;;;4960034;28;20126;-91
2022/12/28 10:56:37;;;;;;;0.00;0.00;;;8.90;99.90;;;;;;4960728;28;20058;-91
2022/12/28 10:59:24;;;;;;;0.00;0.00;;;8.90;99.90;;;;;;4960117;28;20117;-91
2022/12/28 11:01:56;;;;;;;0.00;0.00;;;9.00;99.90;;;;;;4960011;28;20051;-89
2022/12/28 11:04:26;;;;;;;0.10;0.10;;;8.90;99.90;;;;;;4960592;28;20050;-90
2022/12/28 11:07:05;;;;;;;;;;;;;;;;;;;;;
2022/12/28 11:12:32;;;;;;;0.00;0.00;;;8.90;99.90;;;;;;4978491;28;20138;-91
2022/12/28 11:15:05;;;;;;;0.00;0.00;;;9.00;99.90;;;;;;4946673;28;20082;-91
2022/12/28 11:17:43;;;;;;;0.00;0.00;;;9.00;99.90;;;;;;4978855;28;20082;-92
2022/12/28 11:20:48;;;;;;;0.00;0.00;;;9.00;99.90;;;;;;4975969;28;20070;-91
2022/12/28 11:23:31;;;;;;;0.00;0.00;;;9.00;99.90;;;;;;4972563;28;20050;-93
2022/12/28 11:26:10;;;;;;;;;;;;;;;;;;;;;
2022/12/28 11:28:58;;;;;;;;;;;;;;;;;;;;;
2022/12/28 11:31:55;;;;;;;0.00;0.00;;;9.00;99.90;;;;;;4976287;28;20560;-93
2022/12/28 11:34:25;;;;;;;0.00;0.00;;;9.10;99.90;;;;;;4960434;28;20097;-93
2022/12/28 11:37:02;;;;;;;0.10;0.10;;;9.10;99.90;;;;;;4960082;28;20047;-94
2022/12/28 11:39:32;;;;;;;0.00;0.00;;;9.10;99.90;;;;;;4944705;28;20098;-93
2022/12/28 11:42:21;;;;;;;;;;;;;;;;;;;;;
2022/12/28 11:45:00;;;;;;;0.00;0.00;;;9.10;99.90;;;;;;4977731;28;20090;-93
2022/12/28 11:48:12;;;;;;;0.00;0.00;;;9.10;99.90;;;;;;4963327;28;20086;-92
2022/12/28 11:54:03;;;;;;;;;;;;;;;;;;;;;
2022/12/28 11:57:09;;;;;;;0.00;0.00;;;9.10;99.90;;;;;;4976496;28;20098;-94
2022/12/28 11:59:38;;;;;;;0.00;0.00;;;9.10;99.90;;;;;;4958976;28;20109;-92
2022/12/28 12:02:22;;;;;;;1.35;0.00;;;9.10;99.90;;;;;;4959766;28;20138;-92
2022/12/28 12:04:57;;;;;;;0.10;0.10;;;9.10;99.90;;;;;;4958552;28;20052;-91
2022/12/28 12:07:51;;;;;;;0.00;0.00;;;9.10;99.90;;;;;;4958486;28;20050;-89
2022/12/28 12:10:40;;;;;;;0.00;0.00;;;9.10;99.90;;;;;;4959609;28;20051;-92
2022/12/28 12:13:30;;;;;;;0.00;0.00;;;9.10;99.90;;;;;;4959146;28;20054;-91
2022/12/28 12:16:19;;;;;;;0.00;0.00;;;9.10;99.90;;;;;;4958989;28;20550;-91
2022/12/28 12:19:12;;;;;;;0.00;0.00;;;9.10;99.90;;;;;;4975656;28;20138;-90
2022/12/28 12:21:52;;;;;;;0.00;0.00;;;9.10;99.90;;;;;;4959077;28;20054;-92
2022/12/28 12:24:59;;;;;;;0.00;0.00;;;9.10;99.90;;;;;;4944066;28;20058;-93
2022/12/28 12:28:12;;;;;;;0.00;0.00;;;9.10;99.90;;;;;;4971682;28;20078;-93
2022/12/28 12:31:22;;;;;;;0.05;0.00;;;9.00;99.90;;;;;;4922644;29;20523;-95
2022/12/28 12:34:01;;;;;;;0.00;0.00;;;9.00;99.90;;;;;;4939399;29;20051;-92
2022/12/28 12:37:13;;;;;;;;;;;;;;;;;;;;;
2022/12/28 12:40:15;;;;;;;0.00;0.00;;;9.10;99.90;;;;;;4975503;28;20495;-92
2022/12/28 12:43:09;;;;;;;0.00;0.00;;;9.10;99.90;;;;;;4961979;28;20061;-93
2022/12/28 12:45:47;;;;;;;0.00;0.00;;;9.10;99.90;;;;;;4962918;28;20479;-93
2022/12/28 12:48:53;;;;;;;0.00;0.00;;;9.10;99.90;;;;;;4963264;28;20058;-93
2022/12/28 12:52:07;;;;;;;;;;;;;;;;;;;;;
2022/12/28 12:55:12;;;;;;;0.00;0.00;;;9.10;99.90;;;;;;4978675;28;20047;-92
2022/12/28 12:57:47;;;;;;;0.00;0.00;;;9.10;99.90;;;;;;4962719;28;20158;-92
2022/12/28 13:00:38;;;;;;;0.00;0.00;;;9.10;99.90;;;;;;4962309;28;20047;-92
2022/12/28 13:03:33;;;;;;;0.00;0.00;;;9.10;99.90;;;;;;4967383;28;20057;-90
2022/12/28 13:06:07;;;;;;;0.00;0.00;;;9.10;99.90;;;;;;4963226;28;20141;-92
2022/12/28 13:08:51;;;;;;;0.00;0.00;;;9.10;99.90;;;;;;4945649;28;20055;-92
2022/12/28 13:11:53;;;;;;;;;;;;;;;;;;;;;
2022/12/28 13:14:23;;;;;;;0.00;0.00;;;9.20;99.90;;;;;;4977760;28;20082;-92
2022/12/28 13:17:16;;;;;;;0.00;0.00;;;9.20;99.90;;;;;;4961588;28;20051;-91
2022/12/28 13:19:47;;;;;;;0.00;0.00;;;9.10;99.90;;;;;;4962596;28;20077;-94
2022/12/28 13:22:32;;;;;;;0.00;0.00;;;9.20;99.90;;;;;;4962644;28;20078;-94
2022/12/28 13:25:44;;;;;;;0.00;0.00;;;9.20;99.90;;;;;;4962559;28;20069;-94
2022/12/28 13:28:34;;;;;;;0.00;0.00;;;9.20;99.90;;;;;;4959220;28;20086;-93
2022/12/28 13:31:22;;;;;;;0.00;0.00;;;9.10;99.90;;;;;;4931941;29;20061;-91
2022/12/28 13:33:56;;;;;;;0.00;0.00;;;9.20;99.90;;;;;;4945295;28;20054;-92
2022/12/28 13:36:30;;;;;;;0.10;0.10;;;9.20;99.90;;;;;;4961253;28;20148;-91
2022/12/28 13:39:37;;;;;;;0.00;0.00;;;9.10;99.90;;;;;;4928036;27;4337587;-91
2022/12/28 13:42:46;;;;;;;0.00;0.00;;;9.20;99.90;;;;;;5035974;28;20123;-92
2022/12/28 13:45:22;;;;;;;0.00;0.00;;;9.10;99.90;;;;;;4997247;28;20054;-91
2022/12/28 13:48:09;;;;;;;0.00;0.00;;;9.20;99.90;;;;;;5035132;28;20170;-93
2022/12/28 13:50:40;;;;;;;0.00;0.00;;;9.10;99.90;;;;;;5035864;28;20064;-89
2022/12/28 13:53:31;;;;;;;0.00;0.00;;;9.20;99.90;;;;;;5029022;28;20096;-90
2022/12/28 13:56:12;;;;;;;0.00;0.00;;;9.20;99.90;;;;;;5009575;28;20053;-92
2022/12/28 13:59:00;;;;;;;0.05;0.05;;;9.10;99.90;;;;;;5035434;28;20041;-94
2022/12/28 14:01:53;;;;;;;;;;;;;;;;;;;;;
2022/12/28 14:04:35;;;;;;;;;;;;;;;;;;;;;
2022/12/28 14:13:17;;;;;;;0.00;0.00;;;9.10;99.90;;;;;;5052147;28;20049;-95
2022/12/28 14:16:43;;;;;;;0.08;0.00;;;9.10;99.90;;;;;;5053072;28;20045;-94
2022/12/28 14:19:50;;;;;;;0.00;0.00;;;9.20;99.90;;;;;;5049279;28;20045;-96
2022/12/28 14:23:21;;;;;;;;;;;;;;;;;;;;;
2022/12/28 14:26:06;;;;;;;;;;;;;;;;;;;;;
2022/12/28 14:29:06;;;;;;;;;;;;;;;;;;;;;
2022/12/28 14:31:38;;;;;;;0.00;0.00;;;9.10;99.90;;;;;;5051344;28;20081;-91
2022/12/28 14:34:22;;;;;;;0.00;0.00;;;9.10;99.90;;;;;;5034619;28;20083;-90
2022/12/28 14:36:53;;;;;;;0.00;0.00;;;9.10;99.90;;;;;;5018232;28;20478;-92
2022/12/28 14:39:37;;;;;;;0.00;0.00;;;9.10;99.90;;;;;;5024383;28;20053;-92
2022/12/28 14:42:23;;;;;;;0.00;0.00;;;9.00;99.90;;;;;;5031763;28;20047;-92
2022/12/28 14:47:56;;;;;;;0.00;0.00;;;9.00;99.90;;;;;;5033956;28;20048;-93
2022/12/28 14:50:35;;;;;;;0.38;0.38;;;9.00;99.90;;;;;;4998506;28;20064;-94
2022/12/28 14:53:45;;;;;;;0.00;0.00;;;9.00;99.90;;;;;;4986175;28;20182;-96
2022/12/28 14:56:48;;;;;;;0.00;0.00;;;9.10;99.90;;;;;;5024538;28;20056;-93
2022/12/28 14:59:32;;;;;;;0.20;0.00;;;9.00;99.90;;;;;;5000818;28;20105;-93
2022/12/28 15:02:08;;;;;;;0.32;0.00;;;9.10;99.90;;;;;;5018892;28;20069;-93
2022/12/28 15:04:51;;;;;;;;;;;;;;;;;;;;;
2022/12/28 15:07:32;;;;;;;;;;;;;;;;;;;;;
2022/12/28 15:10:46;;;;;;;0.00;0.00;;;9.10;99.90;;;;;;5035718;28;20489;-96
2022/12/28 15:13:28;;;;;;;0.00;0.00;;;9.00;99.90;;;;;;5016631;28;20038;-92
2022/12/28 15:16:08;;;;;;;0.00;0.00;;;9.10;99.90;;;;;;4989571;28;20042;-93
2022/12/28 15:19:04;;;;;;;;;;;;;;;;;;;;;
2022/12/28 15:22:01;;;;;;;0.53;0.53;;;9.10;99.90;;;;;;5017892;28;20118;-94
2022/12/28 15:24:45;;;;;;;0.65;0.65;;;9.10;99.90;;;;;;5016412;28;20479;-92
2022/12/28 15:27:57;;;;;;;0.00;0.00;;;9.10;99.90;;;;;;4986689;28;20518;-93
2022/12/28 15:30:47;;;;;;;0.00;0.00;;;9.10;99.90;;;;;;5005258;28;20054;-93
2022/12/28 15:33:57;;;;;;;0.10;0.00;;;9.10;99.90;;;;;;4986600;28;20052;-93
2022/12/28 15:36:51;;;;;;;0.00;0.00;;;9.00;99.90;;;;;;5006476;28;20037;-90
2022/12/28 15:40:02;;;;;;;0.15;0.10;;;9.00;99.90;;;;;;5001325;28;20113;-91
2022/12/28 15:49:32;;;;;;;0.47;0.30;;;9.10;99.90;;;;;;5006064;28;20549;-91
2022/12/28 15:52:45;;;;;;;;;;;;;;;;;;;;;
2022/12/28 15:55:45;;;;;;;5.68;0.10;;;9.10;99.90;;;;;;5016884;28;20049;-91
2022/12/28 15:58:32;;;;;;;;;;;;;;;;;;;;;
2022/12/28 16:01:30;;;;;;;0.52;0.10;;;9.00;99.90;;;;;;5000068;28;20200;-91
2022/12/28 16:04:11;;;;;;;;;;;;;;;;;;;;;
2022/12/28 16:06:57;;;;;;;0.00;0.00;;;9.10;99.90;;;;;;5015099;28;20046;-90
2022/12/28 16:09:54;;;;;;;0.00;0.00;;;9.10;99.90;;;;;;4999838;28;20049;-90
2022/12/28 16:12:38;;;;;;;;;;;;;;;;;;;;;
2022/12/28 16:15:05;;;;;;;0.03;0.03;;;9.10;99.90;;;;;;5000858;28;20052;-90
2022/12/28 16:17:36;;;;;;;0.10;0.10;;;9.10;99.90;;;;;;4998777;28;20107;-89
2022/12/28 16:23:37;;;;;;;0.00;0.00;;;9.10;99.90;;;;;;5015418;28;20046;-90
2022/12/28 16:26:22;;;;;;;;;;;;;;;;;;;;;
2022/12/28 16:29:09;;;;;;;0.25;0.25;;;9.10;99.90;;;;;;5015248;28;20050;-90
2022/12/28 16:31:51;;;;;;;;;;;;;;;;;;;;;
2022/12/28 16:41:04;;;;;;;0.00;0.00;;;9.10;99.90;;;;;;5003918;28;20443;-90
2022/12/28 16:43:39;;;;;;;1.45;0.17;;;9.10;99.90;;;;;;4999361;28;20399;-90
2022/12/28 16:46:08;;;;;;;;;;;9.10;99.90;;;;;;4999054;28;20397;-90
2022/12/28 16:48:45;;;;;;;0.00;0.00;;;9.10;99.90;;;;;;5014995;28;19955;-91
2022/12/28 16:51:14;;;;;;;0.00;0.00;;;9.10;99.90;;;;;;4998264;28;20042;-91
2022/12/28 16:53:57;;;;;;;0.00;0.00;;;9.10;99.90;;;;;;4999384;28;20056;-94
2022/12/28 16:56:50;;;;;;;0.00;0.00;;;9.10;99.90;;;;;;4985892;28;20049;-91
2022/12/28 16:59:30;;;;;;;2.22;0.93;;;9.10;99.90;;;;;;5014930;28;20077;-92
2022/12/28 17:02:36;;;;;;;0.00;0.00;;;9.10;99.90;;;;;;4999943;28;20508;-92
2022/12/28 17:05:22;;;;;;;;;;;;;;;;;;;;;
2022/12/28 17:07:59;;;;;;;1.65;1.00;;;9.10;99.90;;;;;;5035675;28;20468;-93
2022/12/28 17:11:10;;;;;;;;;;;;;;;;;;;;;
2022/12/28 17:13:40;;;;;;;;;;;;;;;;;;;;;
2022/12/28 17:16:19;;;;;;;;;;;;;;;;;;;;;
2022/12/28 17:22:12;;;;;;;0.20;0.20;;;9.00;99.90;;;;;;4972361;28;20434;-94
2022/12/28 17:25:19;;;;;;;0.68;0.30;;;9.00;99.90;;;;;;5002120;28;20115;-91
2022/12/28 17:27:57;;;;;;;;;;;;;;;;;;;;;
2022/12/28 17:30:33;;;;;;;0.03;0.03;;;8.90;99.90;;;;;;5033424;28;20498;-88
2022/12/28 17:33:11;;;;;;;0.00;0.00;;;8.90;99.90;;;;;;5017730;28;20053;-89